sensor_id;sensor_type;location;lat;lon;timestamp;temperature;humidity
23311;DHT22;11828;51.508;18.118;2023-09-18T00:00:52;32.50;38.40
23311;DHT22;11828;51.508;18.118;2023-09-18T00:03:37;32.50;38.60
23311;DHT22;11828;51.508;18.118;2023-09-18T00:06:03;32.40;38.70
23311;DHT22;11828;51.508;18.118;2023-09-18T00:08:31;32.40;38.70
23311;DHT22;11828;51.508;18.118;2023-09-18T00:10:57;32.30;38.80
23311;DHT22;11828;51.508;18.118;2023-09-18T00:13:24;32.30;38.80
23311;DHT22;11828;51.508;18.118;2023-09-18T00:15:53;32.30;38.80
23311;DHT22;11828;51.508;18.118;2023-09-18T00:18:20;32.30;38.70
23311;DHT22;11828;51.508;18.118;2023-09-18T00:20:46;32.30;38.70
23311;DHT22;11828;51.508;18.118;2023-09-18T00:23:14;32.30;38.70
23311;DHT22;11828;51.508;18.118;2023-09-18T00:25:41;32.30;38.70
23311;DHT22;11828;51.508;18.118;2023-09-18T00:28:08;32.30;38.80
23311;DHT22;11828;51.508;18.118;2023-09-18T00:30:34;32.20;38.70
23311;DHT22;11828;51.508;18.118;2023-09-18T00:33:01;32.30;38.80
23311;DHT22;11828;51.508;18.118;2023-09-18T00:35:27;32.30;38.80
23311;DHT22;11828;51.508;18.118;2023-09-18T00:37:53;32.20;38.90
23311;DHT22;11828;51.508;18.118;2023-09-18T00:40:19;32.20;39.00
23311;DHT22;11828;51.508;18.118;2023-09-18T00:42:45;32.10;39.00
23311;DHT22;11828;51.508;18.118;2023-09-18T00:45:11;32.10;39.00
23311;DHT22;11828;51.508;18.118;2023-09-18T00:47:38;32.00;39.10
23311;DHT22;11828;51.508;18.118;2023-09-18T00:50:06;31.80;39.30
23311;DHT22;11828;51.508;18.118;2023-09-18T00:52:35;31.70;40.20
23311;DHT22;11828;51.508;18.118;2023-09-18T00:55:02;31.70;39.60
23311;DHT22;11828;51.508;18.118;2023-09-18T00:57:29;31.80;39.60
23311;DHT22;11828;51.508;18.118;2023-09-18T00:59:55;31.70;39.40
23311;DHT22;11828;51.508;18.118;2023-09-18T01:02:21;31.80;39.50
23311;DHT22;11828;51.508;18.118;2023-09-18T01:04:48;31.80;39.40
23311;DHT22;11828;51.508;18.118;2023-09-18T01:07:15;31.90;39.40
23311;DHT22;11828;51.508;18.118;2023-09-18T01:09:41;31.80;39.30
23311;DHT22;11828;51.508;18.118;2023-09-18T01:12:19;31.80;39.20
23311;DHT22;11828;51.508;18.118;2023-09-18T01:17:36;31.70;39.20
23311;DHT22;11828;51.508;18.118;2023-09-18T01:20:04;31.60;39.30
23311;DHT22;11828;51.508;18.118;2023-09-18T01:22:32;31.60;40.10
23311;DHT22;11828;51.508;18.118;2023-09-18T01:24:58;31.50;39.50
23311;DHT22;11828;51.508;18.118;2023-09-18T01:27:24;31.50;39.50
23311;DHT22;11828;51.508;18.118;2023-09-18T01:29:50;31.40;40.30
23311;DHT22;11828;51.508;18.118;2023-09-18T01:32:17;31.30;39.80
23311;DHT22;11828;51.508;18.118;2023-09-18T01:34:49;31.20;39.90
23311;DHT22;11828;51.508;18.118;2023-09-18T01:37:23;31.20;40.00
23311;DHT22;11828;51.508;18.118;2023-09-18T01:39:51;31.20;40.10
23311;DHT22;11828;51.508;18.118;2023-09-18T01:42:18;31.30;40.00
23311;DHT22;11828;51.508;18.118;2023-09-18T01:44:47;31.30;40.00
23311;DHT22;11828;51.508;18.118;2023-09-18T01:47:19;31.20;40.00
23311;DHT22;11828;51.508;18.118;2023-09-18T01:49:47;31.10;40.10
23311;DHT22;11828;51.508;18.118;2023-09-18T01:52:13;31.10;40.30
23311;DHT22;11828;51.508;18.118;2023-09-18T01:54:39;31.00;40.40
23311;DHT22;11828;51.508;18.118;2023-09-18T01:57:06;31.00;40.40
23311;DHT22;11828;51.508;18.118;2023-09-18T01:59:35;30.90;40.60
23311;DHT22;11828;51.508;18.118;2023-09-18T02:02:01;30.90;40.70
23311;DHT22;11828;51.508;18.118;2023-09-18T02:04:32;30.90;40.80
23311;DHT22;11828;51.508;18.118;2023-09-18T02:06:59;30.80;40.70
23311;DHT22;11828;51.508;18.118;2023-09-18T02:09:25;30.90;40.60
23311;DHT22;11828;51.508;18.118;2023-09-18T02:11:51;31.00;40.50
23311;DHT22;11828;51.508;18.118;2023-09-18T02:14:17;30.90;40.60
23311;DHT22;11828;51.508;18.118;2023-09-18T02:16:44;30.90;40.60
23311;DHT22;11828;51.508;18.118;2023-09-18T02:19:12;31.00;40.50
23311;DHT22;11828;51.508;18.118;2023-09-18T02:21:40;31.00;40.40
23311;DHT22;11828;51.508;18.118;2023-09-18T02:24:07;31.20;40.10
23311;DHT22;11828;51.508;18.118;2023-09-18T02:26:33;31.30;39.80
23311;DHT22;11828;51.508;18.118;2023-09-18T02:29:02;31.50;39.40
23311;DHT22;11828;51.508;18.118;2023-09-18T02:31:30;31.60;38.80
23311;DHT22;11828;51.508;18.118;2023-09-18T02:33:56;31.60;38.80
23311;DHT22;11828;51.508;18.118;2023-09-18T02:36:23;31.30;39.10
23311;DHT22;11828;51.508;18.118;2023-09-18T02:38:49;31.30;39.20
23311;DHT22;11828;51.508;18.118;2023-09-18T02:41:15;31.20;39.30
23311;DHT22;11828;51.508;18.118;2023-09-18T02:43:41;31.10;39.30
23311;DHT22;11828;51.508;18.118;2023-09-18T02:46:08;31.10;39.20
23311;DHT22;11828;51.508;18.118;2023-09-18T02:48:34;31.10;39.30
23311;DHT22;11828;51.508;18.118;2023-09-18T02:51:01;31.10;39.50
23311;DHT22;11828;51.508;18.118;2023-09-18T02:53:27;31.00;39.40
23311;DHT22;11828;51.508;18.118;2023-09-18T02:55:56;31.00;39.50
23311;DHT22;11828;51.508;18.118;2023-09-18T02:58:23;31.10;40.20
23311;DHT22;11828;51.508;18.118;2023-09-18T03:00:52;31.00;39.50
23311;DHT22;11828;51.508;18.118;2023-09-18T03:03:23;30.80;39.60
23311;DHT22;11828;51.508;18.118;2023-09-18T03:05:49;30.80;39.80
23311;DHT22;11828;51.508;18.118;2023-09-18T03:08:15;30.70;39.80
23311;DHT22;11828;51.508;18.118;2023-09-18T03:10:43;30.70;39.90
23311;DHT22;11828;51.508;18.118;2023-09-18T03:13:13;30.70;40.00
23311;DHT22;11828;51.508;18.118;2023-09-18T03:15:41;30.70;39.90
23311;DHT22;11828;51.508;18.118;2023-09-18T03:18:11;30.80;39.90
23311;DHT22;11828;51.508;18.118;2023-09-18T03:20:37;30.70;39.90
23311;DHT22;11828;51.508;18.118;2023-09-18T03:23:04;30.80;39.90
23311;DHT22;11828;51.508;18.118;2023-09-18T03:25:30;30.90;39.50
23311;DHT22;11828;51.508;18.118;2023-09-18T03:27:57;31.00;39.20
23311;DHT22;11828;51.508;18.118;2023-09-18T03:30:24;31.20;38.80
23311;DHT22;11828;51.508;18.118;2023-09-18T03:32:51;31.30;38.60
23311;DHT22;11828;51.508;18.118;2023-09-18T03:35:18;31.40;38.20
23311;DHT22;11828;51.508;18.118;2023-09-18T03:37:45;31.50;37.90
23311;DHT22;11828;51.508;18.118;2023-09-18T03:40:18;31.60;37.70
23311;DHT22;11828;51.508;18.118;2023-09-18T03:42:45;31.60;37.60
23311;DHT22;11828;51.508;18.118;2023-09-18T03:45:12;31.60;37.60
23311;DHT22;11828;51.508;18.118;2023-09-18T03:47:40;31.60;38.30
23311;DHT22;11828;51.508;18.118;2023-09-18T03:50:08;31.70;37.60
23311;DHT22;11828;51.508;18.118;2023-09-18T03:52:36;31.70;37.50
23311;DHT22;11828;51.508;18.118;2023-09-18T03:55:03;31.70;37.50
23311;DHT22;11828;51.508;18.118;2023-09-18T03:57:29;31.60;37.50
23311;DHT22;11828;51.508;18.118;2023-09-18T03:59:55;31.60;37.60
23311;DHT22;11828;51.508;18.118;2023-09-18T04:02:24;31.50;37.70
23311;DHT22;11828;51.508;18.118;2023-09-18T04:04:51;31.40;37.90
23311;DHT22;11828;51.508;18.118;2023-09-18T04:07:19;31.40;38.00
23311;DHT22;11828;51.508;18.118;2023-09-18T04:09:45;31.20;38.20
23311;DHT22;11828;51.508;18.118;2023-09-18T04:12:12;31.10;38.40
23311;DHT22;11828;51.508;18.118;2023-09-18T04:14:39;31.10;38.40
23311;DHT22;11828;51.508;18.118;2023-09-18T04:17:05;31.00;38.50
23311;DHT22;11828;51.508;18.118;2023-09-18T04:19:31;31.00;38.50
23311;DHT22;11828;51.508;18.118;2023-09-18T04:21:57;31.00;38.50
23311;DHT22;11828;51.508;18.118;2023-09-18T04:24:25;30.90;38.40
23311;DHT22;11828;51.508;18.118;2023-09-18T04:26:51;30.80;38.60
23311;DHT22;11828;51.508;18.118;2023-09-18T04:29:18;30.70;38.60
23311;DHT22;11828;51.508;18.118;2023-09-18T04:31:44;30.70;38.60
23311;DHT22;11828;51.508;18.118;2023-09-18T04:34:11;30.60;38.80
23311;DHT22;11828;51.508;18.118;2023-09-18T04:36:37;30.50;39.00
23311;DHT22;11828;51.508;18.118;2023-09-18T04:39:05;30.50;39.00
23311;DHT22;11828;51.508;18.118;2023-09-18T04:41:32;30.40;39.30
23311;DHT22;11828;51.508;18.118;2023-09-18T04:43:58;30.40;39.40
23311;DHT22;11828;51.508;18.118;2023-09-18T04:46:24;30.60;39.20
23311;DHT22;11828;51.508;18.118;2023-09-18T04:48:51;30.70;39.00
23311;DHT22;11828;51.508;18.118;2023-09-18T04:51:17;30.80;38.70
23311;DHT22;11828;51.508;18.118;2023-09-18T04:53:44;30.90;38.50
23311;DHT22;11828;51.508;18.118;2023-09-18T04:56:10;31.00;38.50
23311;DHT22;11828;51.508;18.118;2023-09-18T04:58:37;31.00;38.30
23311;DHT22;11828;51.508;18.118;2023-09-18T05:01:03;31.00;38.20
23311;DHT22;11828;51.508;18.118;2023-09-18T05:03:36;31.10;38.30
23311;DHT22;11828;51.508;18.118;2023-09-18T05:06:02;31.10;38.30
23311;DHT22;11828;51.508;18.118;2023-09-18T05:08:30;31.10;38.30
23311;DHT22;11828;51.508;18.118;2023-09-18T05:10:56;31.10;38.30
23311;DHT22;11828;51.508;18.118;2023-09-18T05:13:24;31.00;38.40
23311;DHT22;11828;51.508;18.118;2023-09-18T05:15:50;30.90;38.60
23311;DHT22;11828;51.508;18.118;2023-09-18T05:18:16;30.80;38.80
23311;DHT22;11828;51.508;18.118;2023-09-18T05:20:42;30.60;38.90
23311;DHT22;11828;51.508;18.118;2023-09-18T05:23:08;30.60;39.20
23311;DHT22;11828;51.508;18.118;2023-09-18T05:25:34;30.60;39.20
23311;DHT22;11828;51.508;18.118;2023-09-18T05:28:04;30.50;39.40
23311;DHT22;11828;51.508;18.118;2023-09-18T05:30:33;30.40;39.50
23311;DHT22;11828;51.508;18.118;2023-09-18T05:33:05;30.40;39.70
23311;DHT22;11828;51.508;18.118;2023-09-18T05:35:43;30.40;39.80
23311;DHT22;11828;51.508;18.118;2023-09-18T05:38:11;30.40;39.90
23311;DHT22;11828;51.508;18.118;2023-09-18T05:40:43;30.40;40.00
23311;DHT22;11828;51.508;18.118;2023-09-18T05:43:11;30.50;40.20
23311;DHT22;11828;51.508;18.118;2023-09-18T05:45:37;30.50;40.10
23311;DHT22;11828;51.508;18.118;2023-09-18T05:48:04;30.70;40.20
23311;DHT22;11828;51.508;18.118;2023-09-18T05:50:31;30.60;40.20
23311;DHT22;11828;51.508;18.118;2023-09-18T05:52:59;30.70;40.30
23311;DHT22;11828;51.508;18.118;2023-09-18T05:55:29;30.70;40.30
23311;DHT22;11828;51.508;18.118;2023-09-18T05:57:56;30.80;40.40
23311;DHT22;11828;51.508;18.118;2023-09-18T06:00:23;31.00;40.40
23311;DHT22;11828;51.508;18.118;2023-09-18T06:02:50;31.10;40.20
23311;DHT22;11828;51.508;18.118;2023-09-18T06:05:17;31.20;40.20
23311;DHT22;11828;51.508;18.118;2023-09-18T06:07:48;31.30;40.10
23311;DHT22;11828;51.508;18.118;2023-09-18T06:10:14;31.30;40.10
23311;DHT22;11828;51.508;18.118;2023-09-18T06:12:41;31.40;40.20
23311;DHT22;11828;51.508;18.118;2023-09-18T06:15:07;31.20;40.30
23311;DHT22;11828;51.508;18.118;2023-09-18T06:17:42;31.40;40.50
23311;DHT22;11828;51.508;18.118;2023-09-18T06:20:10;31.40;40.50
23311;DHT22;11828;51.508;18.118;2023-09-18T06:22:39;31.50;40.50
23311;DHT22;11828;51.508;18.118;2023-09-18T06:25:06;31.60;40.70
23311;DHT22;11828;51.508;18.118;2023-09-18T06:27:37;31.60;40.70
23311;DHT22;11828;51.508;18.118;2023-09-18T06:30:04;31.80;40.70
23311;DHT22;11828;51.508;18.118;2023-09-18T06:32:32;31.80;40.70
23311;DHT22;11828;51.508;18.118;2023-09-18T06:34:58;32.00;40.70
23311;DHT22;11828;51.508;18.118;2023-09-18T06:37:25;32.30;40.40
23311;DHT22;11828;51.508;18.118;2023-09-18T06:39:51;32.50;40.20
23311;DHT22;11828;51.508;18.118;2023-09-18T06:42:18;32.80;40.00
23311;DHT22;11828;51.508;18.118;2023-09-18T06:44:44;32.80;39.90
23311;DHT22;11828;51.508;18.118;2023-09-18T06:47:11;32.90;39.90
23311;DHT22;11828;51.508;18.118;2023-09-18T06:49:37;33.20;40.00
23311;DHT22;11828;51.508;18.118;2023-09-18T06:52:03;33.60;39.80
23311;DHT22;11828;51.508;18.118;2023-09-18T06:54:30;34.10;39.50
23311;DHT22;11828;51.508;18.118;2023-09-18T06:56:57;34.90;38.90
23311;DHT22;11828;51.508;18.118;2023-09-18T06:59:23;35.80;38.10
23311;DHT22;11828;51.508;18.118;2023-09-18T07:01:50;36.50;36.60
23311;DHT22;11828;51.508;18.118;2023-09-18T07:04:16;37.20;35.60
23311;DHT22;11828;51.508;18.118;2023-09-18T07:06:42;37.80;34.70
23311;DHT22;11828;51.508;18.118;2023-09-18T07:09:08;38.40;33.60
23311;DHT22;11828;51.508;18.118;2023-09-18T07:11:38;38.90;33.00
23311;DHT22;11828;51.508;18.118;2023-09-18T07:14:04;39.40;32.50
23311;DHT22;11828;51.508;18.118;2023-09-18T07:16:32;39.90;31.80
23311;DHT22;11828;51.508;18.118;2023-09-18T07:19:02;40.50;31.40
23311;DHT22;11828;51.508;18.118;2023-09-18T07:21:31;41.20;30.60
23311;DHT22;11828;51.508;18.118;2023-09-18T07:23:57;41.70;29.50
23311;DHT22;11828;51.508;18.118;2023-09-18T07:26:24;42.20;29.30
23311;DHT22;11828;51.508;18.118;2023-09-18T07:28:50;42.30;28.50
23311;DHT22;11828;51.508;18.118;2023-09-18T07:31:16;42.50;28.10
23311;DHT22;11828;51.508;18.118;2023-09-18T07:33:42;42.60;27.60
23311;DHT22;11828;51.508;18.118;2023-09-18T07:36:08;42.80;27.80
23311;DHT22;11828;51.508;18.118;2023-09-18T07:38:36;42.90;27.20
23311;DHT22;11828;51.508;18.118;2023-09-18T07:41:06;43.20;27.50
23311;DHT22;11828;51.508;18.118;2023-09-18T07:43:32;43.40;27.20
23311;DHT22;11828;51.508;18.118;2023-09-18T07:45:58;43.60;26.60
23311;DHT22;11828;51.508;18.118;2023-09-18T07:48:25;43.80;26.90
23311;DHT22;11828;51.508;18.118;2023-09-18T07:50:51;43.80;26.50
23311;DHT22;11828;51.508;18.118;2023-09-18T07:53:17;43.80;26.30
23311;DHT22;11828;51.508;18.118;2023-09-18T07:55:44;44.00;26.50
23311;DHT22;11828;51.508;18.118;2023-09-18T07:58:10;44.10;26.20
23311;DHT22;11828;51.508;18.118;2023-09-18T08:00:37;44.40;26.10
23311;DHT22;11828;51.508;18.118;2023-09-18T08:03:04;44.50;25.90
23311;DHT22;11828;51.508;18.118;2023-09-18T08:05:31;44.50;25.70
23311;DHT22;11828;51.508;18.118;2023-09-18T08:07:57;44.60;25.50
23311;DHT22;11828;51.508;18.118;2023-09-18T08:10:25;44.90;25.30
23311;DHT22;11828;51.508;18.118;2023-09-18T08:12:51;45.00;25.10
23311;DHT22;11828;51.508;18.118;2023-09-18T08:15:19;45.20;25.00
23311;DHT22;11828;51.508;18.118;2023-09-18T08:17:46;45.10;25.00
23311;DHT22;11828;51.508;18.118;2023-09-18T08:20:15;45.00;24.80
23311;DHT22;11828;51.508;18.118;2023-09-18T08:22:42;45.20;24.70
23311;DHT22;11828;51.508;18.118;2023-09-18T08:25:10;45.20;24.90
23311;DHT22;11828;51.508;18.118;2023-09-18T08:27:38;45.30;24.90
23311;DHT22;11828;51.508;18.118;2023-09-18T08:30:08;45.50;24.50
23311;DHT22;11828;51.508;18.118;2023-09-18T08:32:36;45.60;24.40
23311;DHT22;11828;51.508;18.118;2023-09-18T08:35:04;45.70;24.50
23311;DHT22;11828;51.508;18.118;2023-09-18T08:37:31;46.20;24.40
23311;DHT22;11828;51.508;18.118;2023-09-18T08:39:57;45.90;23.70
23311;DHT22;11828;51.508;18.118;2023-09-18T08:42:29;45.70;24.60
23311;DHT22;11828;51.508;18.118;2023-09-18T08:44:58;45.80;24.10
23311;DHT22;11828;51.508;18.118;2023-09-18T08:47:26;45.90;24.00
23311;DHT22;11828;51.508;18.118;2023-09-18T08:49:54;45.90;23.90
23311;DHT22;11828;51.508;18.118;2023-09-18T08:52:21;45.70;23.70
23311;DHT22;11828;51.508;18.118;2023-09-18T08:54:48;45.60;23.90
23311;DHT22;11828;51.508;18.118;2023-09-18T08:57:14;45.50;24.00
23311;DHT22;11828;51.508;18.118;2023-09-18T08:59:41;45.60;24.00
23311;DHT22;11828;51.508;18.118;2023-09-18T09:02:08;45.40;24.10
23311;DHT22;11828;51.508;18.118;2023-09-18T09:04:38;45.20;24.20
23311;DHT22;11828;51.508;18.118;2023-09-18T09:07:04;45.00;24.30
23311;DHT22;11828;51.508;18.118;2023-09-18T09:09:31;44.90;24.40
23311;DHT22;11828;51.508;18.118;2023-09-18T09:11:57;44.70;24.50
23311;DHT22;11828;51.508;18.118;2023-09-18T09:14:23;44.70;24.70
23311;DHT22;11828;51.508;18.118;2023-09-18T09:16:58;44.90;24.60
23311;DHT22;11828;51.508;18.118;2023-09-18T09:19:30;44.80;24.60
23311;DHT22;11828;51.508;18.118;2023-09-18T09:21:58;44.70;24.70
23311;DHT22;11828;51.508;18.118;2023-09-18T09:24:38;44.80;24.60
23311;DHT22;11828;51.508;18.118;2023-09-18T09:27:09;44.70;24.50
23311;DHT22;11828;51.508;18.118;2023-09-18T09:29:36;44.40;24.60
23311;DHT22;11828;51.508;18.118;2023-09-18T09:32:16;44.40;24.80
23311;DHT22;11828;51.508;18.118;2023-09-18T09:34:43;44.20;24.90
23311;DHT22;11828;51.508;18.118;2023-09-18T09:37:10;44.00;24.90
23311;DHT22;11828;51.508;18.118;2023-09-18T09:39:48;43.80;25.20
23311;DHT22;11828;51.508;18.118;2023-09-18T09:42:18;43.90;25.20
23311;DHT22;11828;51.508;18.118;2023-09-18T09:45:04;44.00;25.20
23311;DHT22;11828;51.508;18.118;2023-09-18T09:47:37;44.00;25.10
23311;DHT22;11828;51.508;18.118;2023-09-18T09:50:22;44.20;25.10
23311;DHT22;11828;51.508;18.118;2023-09-18T09:52:49;43.90;25.20
23311;DHT22;11828;51.508;18.118;2023-09-18T10:00:41;43.10;25.60
23311;DHT22;11828;51.508;18.118;2023-09-18T10:03:10;42.90;25.50
23311;DHT22;11828;51.508;18.118;2023-09-18T10:05:39;42.70;25.90
23311;DHT22;11828;51.508;18.118;2023-09-18T10:08:21;42.60;25.80
23311;DHT22;11828;51.508;18.118;2023-09-18T10:10:50;42.10;26.00
23311;DHT22;11828;51.508;18.118;2023-09-18T10:13:35;41.90;26.50
23311;DHT22;11828;51.508;18.118;2023-09-18T10:16:07;41.60;26.60
23311;DHT22;11828;51.508;18.118;2023-09-18T10:21:34;41.40;26.90
23311;DHT22;11828;51.508;18.118;2023-09-18T10:24:24;41.40;27.10
23311;DHT22;11828;51.508;18.118;2023-09-18T10:26:54;41.30;27.30
23311;DHT22;11828;51.508;18.118;2023-09-18T10:29:25;41.00;27.20
23311;DHT22;11828;51.508;18.118;2023-09-18T10:31:53;40.90;27.40
23311;DHT22;11828;51.508;18.118;2023-09-18T10:34:21;40.70;27.40
23311;DHT22;11828;51.508;18.118;2023-09-18T10:36:50;40.90;28.00
23311;DHT22;11828;51.508;18.118;2023-09-18T10:39:17;40.90;27.60
23311;DHT22;11828;51.508;18.118;2023-09-18T10:41:52;40.80;27.50
23311;DHT22;11828;51.508;18.118;2023-09-18T10:44:19;40.70;27.70
23311;DHT22;11828;51.508;18.118;2023-09-18T10:46:47;40.80;27.60
23311;DHT22;11828;51.508;18.118;2023-09-18T10:49:15;40.80;27.60
23311;DHT22;11828;51.508;18.118;2023-09-18T10:51:42;40.70;27.50
23311;DHT22;11828;51.508;18.118;2023-09-18T10:54:10;40.90;28.30
23311;DHT22;11828;51.508;18.118;2023-09-18T10:56:37;40.90;27.70
23311;DHT22;11828;51.508;18.118;2023-09-18T10:59:06;40.70;27.60
23311;DHT22;11828;51.508;18.118;2023-09-18T11:01:35;40.90;27.60
23311;DHT22;11828;51.508;18.118;2023-09-18T11:04:06;40.90;27.70
23311;DHT22;11828;51.508;18.118;2023-09-18T11:07:01;40.90;27.80
23311;DHT22;11828;51.508;18.118;2023-09-18T11:09:40;40.60;27.60
23311;DHT22;11828;51.508;18.118;2023-09-18T11:12:14;40.50;27.60
23311;DHT22;11828;51.508;18.118;2023-09-18T11:14:42;40.60;27.90
23311;DHT22;11828;51.508;18.118;2023-09-18T11:20:23;40.50;27.90
23311;DHT22;11828;51.508;18.118;2023-09-18T11:22:58;40.30;27.90
23311;DHT22;11828;51.508;18.118;2023-09-18T11:28:02;40.30;28.20
23311;DHT22;11828;51.508;18.118;2023-09-18T11:30:29;40.20;28.30
23311;DHT22;11828;51.508;18.118;2023-09-18T11:32:56;40.20;28.00
23311;DHT22;11828;51.508;18.118;2023-09-18T11:35:22;40.00;28.20
23311;DHT22;11828;51.508;18.118;2023-09-18T11:38:06;39.80;28.40
23311;DHT22;11828;51.508;18.118;2023-09-18T11:40:36;39.70;28.50
23311;DHT22;11828;51.508;18.118;2023-09-18T11:43:27;39.80;28.60
23311;DHT22;11828;51.508;18.118;2023-09-18T11:45:59;39.70;28.60
23311;DHT22;11828;51.508;18.118;2023-09-18T11:48:28;39.90;28.70
23311;DHT22;11828;51.508;18.118;2023-09-18T11:50:58;39.80;28.60
23311;DHT22;11828;51.508;18.118;2023-09-18T11:53:29;39.70;28.70
23311;DHT22;11828;51.508;18.118;2023-09-18T11:56:00;39.70;28.80
23311;DHT22;11828;51.508;18.118;2023-09-18T11:58:26;39.70;28.90
23311;DHT22;11828;51.508;18.118;2023-09-18T12:00:53;39.80;28.80
23311;DHT22;11828;51.508;18.118;2023-09-18T12:03:21;39.80;28.80
23311;DHT22;11828;51.508;18.118;2023-09-18T12:06:11;39.70;28.60
23311;DHT22;11828;51.508;18.118;2023-09-18T12:08:41;39.60;28.50
23311;DHT22;11828;51.508;18.118;2023-09-18T12:11:08;39.60;28.70
23311;DHT22;11828;51.508;18.118;2023-09-18T12:13:34;39.70;28.90
23311;DHT22;11828;51.508;18.118;2023-09-18T12:16:04;39.90;28.80
23311;DHT22;11828;51.508;18.118;2023-09-18T12:18:35;39.90;28.60
23311;DHT22;11828;51.508;18.118;2023-09-18T12:21:06;39.80;28.70
23311;DHT22;11828;51.508;18.118;2023-09-18T12:23:39;39.60;28.60
23311;DHT22;11828;51.508;18.118;2023-09-18T12:26:06;39.40;28.90
23311;DHT22;11828;51.508;18.118;2023-09-18T12:28:36;39.20;29.20
23311;DHT22;11828;51.508;18.118;2023-09-18T12:31:03;39.20;29.30
23311;DHT22;11828;51.508;18.118;2023-09-18T12:33:36;39.20;29.60
23311;DHT22;11828;51.508;18.118;2023-09-18T12:36:04;39.20;29.50
23311;DHT22;11828;51.508;18.118;2023-09-18T12:38:31;39.00;29.40
23311;DHT22;11828;51.508;18.118;2023-09-18T12:41:01;38.90;29.40
23311;DHT22;11828;51.508;18.118;2023-09-18T12:43:39;39.00;29.40
23311;DHT22;11828;51.508;18.118;2023-09-18T12:46:07;39.00;29.30
23311;DHT22;11828;51.508;18.118;2023-09-18T12:48:38;39.30;29.30
23311;DHT22;11828;51.508;18.118;2023-09-18T12:51:07;39.40;28.90
23311;DHT22;11828;51.508;18.118;2023-09-18T12:53:34;39.60;28.90
23311;DHT22;11828;51.508;18.118;2023-09-18T12:56:10;39.70;28.90
23311;DHT22;11828;51.508;18.118;2023-09-18T12:58:41;39.70;28.80
23311;DHT22;11828;51.508;18.118;2023-09-18T13:01:11;39.80;28.60
23311;DHT22;11828;51.508;18.118;2023-09-18T13:03:45;39.70;28.80
23311;DHT22;11828;51.508;18.118;2023-09-18T13:06:18;39.80;28.50
23311;DHT22;11828;51.508;18.118;2023-09-18T13:08:46;39.90;28.50
23311;DHT22;11828;51.508;18.118;2023-09-18T13:11:12;39.80;28.50
23311;DHT22;11828;51.508;18.118;2023-09-18T13:13:40;40.00;28.80
23311;DHT22;11828;51.508;18.118;2023-09-18T13:16:08;40.10;28.70
23311;DHT22;11828;51.508;18.118;2023-09-18T13:18:37;40.10;28.50
23311;DHT22;11828;51.508;18.118;2023-09-18T13:21:11;40.20;28.60
23311;DHT22;11828;51.508;18.118;2023-09-18T13:23:38;40.10;28.60
23311;DHT22;11828;51.508;18.118;2023-09-18T13:26:06;40.00;28.60
23311;DHT22;11828;51.508;18.118;2023-09-18T13:28:36;39.80;28.60
23311;DHT22;11828;51.508;18.118;2023-09-18T13:31:03;40.00;28.60
23311;DHT22;11828;51.508;18.118;2023-09-18T13:33:31;40.20;28.60
23311;DHT22;11828;51.508;18.118;2023-09-18T13:35:59;40.30;28.40
23311;DHT22;11828;51.508;18.118;2023-09-18T13:38:25;40.30;28.30
23311;DHT22;11828;51.508;18.118;2023-09-18T13:40:54;40.50;28.40
23311;DHT22;11828;51.508;18.118;2023-09-18T13:43:21;40.50;28.20
23311;DHT22;11828;51.508;18.118;2023-09-18T13:45:48;40.20;28.10
23311;DHT22;11828;51.508;18.118;2023-09-18T13:48:17;40.10;28.30
23311;DHT22;11828;51.508;18.118;2023-09-18T13:50:44;39.90;28.60
23311;DHT22;11828;51.508;18.118;2023-09-18T13:53:12;39.70;28.80
23311;DHT22;11828;51.508;18.118;2023-09-18T13:55:39;39.60;28.80
23311;DHT22;11828;51.508;18.118;2023-09-18T13:58:05;39.60;29.00
23311;DHT22;11828;51.508;18.118;2023-09-18T14:00:32;39.40;29.00
23311;DHT22;11828;51.508;18.118;2023-09-18T14:02:59;39.30;28.90
23311;DHT22;11828;51.508;18.118;2023-09-18T14:05:25;39.00;29.10
23311;DHT22;11828;51.508;18.118;2023-09-18T14:07:53;38.90;29.10
23311;DHT22;11828;51.508;18.118;2023-09-18T14:10:26;38.90;29.40
23311;DHT22;11828;51.508;18.118;2023-09-18T14:12:52;38.90;29.30
23311;DHT22;11828;51.508;18.118;2023-09-18T14:15:18;39.00;29.20
23311;DHT22;11828;51.508;18.118;2023-09-18T14:17:45;39.10;29.30
23311;DHT22;11828;51.508;18.118;2023-09-18T14:20:11;38.90;29.10
23311;DHT22;11828;51.508;18.118;2023-09-18T14:22:37;39.00;29.20
23311;DHT22;11828;51.508;18.118;2023-09-18T14:25:06;38.70;29.20
23311;DHT22;11828;51.508;18.118;2023-09-18T14:27:33;39.00;29.30
23311;DHT22;11828;51.508;18.118;2023-09-18T14:30:00;39.00;29.30
23311;DHT22;11828;51.508;18.118;2023-09-18T14:32:30;39.10;29.30
23311;DHT22;11828;51.508;18.118;2023-09-18T14:34:56;39.20;29.20
23311;DHT22;11828;51.508;18.118;2023-09-18T14:37:22;39.20;29.30
23311;DHT22;11828;51.508;18.118;2023-09-18T14:39:48;39.00;29.30
23311;DHT22;11828;51.508;18.118;2023-09-18T14:42:14;38.90;29.50
23311;DHT22;11828;51.508;18.118;2023-09-18T14:44:42;39.00;29.50
23311;DHT22;11828;51.508;18.118;2023-09-18T14:47:13;38.90;29.50
23311;DHT22;11828;51.508;18.118;2023-09-18T14:49:41;38.70;29.50
23311;DHT22;11828;51.508;18.118;2023-09-18T14:52:13;38.60;29.70
23311;DHT22;11828;51.508;18.118;2023-09-18T14:54:41;38.50;29.70
23311;DHT22;11828;51.508;18.118;2023-09-18T14:57:07;38.50;29.80
23311;DHT22;11828;51.508;18.118;2023-09-18T14:59:34;38.70;29.80
23311;DHT22;11828;51.508;18.118;2023-09-18T15:02:01;38.60;29.60
23311;DHT22;11828;51.508;18.118;2023-09-18T15:04:28;38.60;29.50
23311;DHT22;11828;51.508;18.118;2023-09-18T15:06:55;38.70;29.70
23311;DHT22;11828;51.508;18.118;2023-09-18T15:09:21;38.70;29.70
23311;DHT22;11828;51.508;18.118;2023-09-18T15:11:48;38.60;29.70
23311;DHT22;11828;51.508;18.118;2023-09-18T15:14:14;38.70;29.70
23311;DHT22;11828;51.508;18.118;2023-09-18T15:16:41;38.60;29.70
23311;DHT22;11828;51.508;18.118;2023-09-18T15:19:07;38.70;29.80
23311;DHT22;11828;51.508;18.118;2023-09-18T15:21:34;38.80;29.70
23311;DHT22;11828;51.508;18.118;2023-09-18T15:24:00;38.60;29.60
23311;DHT22;11828;51.508;18.118;2023-09-18T15:26:27;38.50;29.70
23311;DHT22;11828;51.508;18.118;2023-09-18T15:28:52;38.50;29.80
23311;DHT22;11828;51.508;18.118;2023-09-18T15:31:19;38.50;29.90
23311;DHT22;11828;51.508;18.118;2023-09-18T15:33:45;38.60;29.90
23311;DHT22;11828;51.508;18.118;2023-09-18T15:36:12;38.60;29.90
23311;DHT22;11828;51.508;18.118;2023-09-18T15:38:38;38.70;29.70